sensor_id;sensor_type;location;lat;lon;timestamp;P1;durP1;ratioP1;P2;durP2;ratioP2
52322;SDS011;38263;52.920;6.238;2023-06-14T00:01:17;6.78;;;1.52;;
52322;SDS011;38263;52.920;6.238;2023-06-14T00:03:45;4.35;;;1.95;;
52322;SDS011;38263;52.920;6.238;2023-06-14T00:06:12;2.78;;;1.40;;
52322;SDS011;38263;52.920;6.238;2023-06-14T00:08:38;3.53;;;1.38;;
52322;SDS011;38263;52.920;6.238;2023-06-14T00:11:05;5.03;;;1.60;;
52322;SDS011;38263;52.920;6.238;2023-06-14T00:13:31;4.57;;;1.20;;
52322;SDS011;38263;52.920;6.238;2023-06-14T00:15:57;3.25;;;1.27;;
52322;SDS011;38263;52.920;6.238;2023-06-14T00:18:23;7.50;;;1.40;;
52322;SDS011;38263;52.920;6.238;2023-06-14T00:20:50;6.28;;;1.27;;
52322;SDS011;38263;52.920;6.238;2023-06-14T00:23:17;4.05;;;1.17;;
52322;SDS011;38263;52.920;6.238;2023-06-14T00:25:42;5.57;;;1.60;;
52322;SDS011;38263;52.920;6.238;2023-06-14T00:28:08;4.90;;;1.60;;
52322;SDS011;38263;52.920;6.238;2023-06-14T00:30:35;10.63;;;3.13;;
52322;SDS011;38263;52.920;6.238;2023-06-14T00:33:01;4.35;;;1.77;;
52322;SDS011;38263;52.920;6.238;2023-06-14T00:35:26;4.00;;;1.40;;
52322;SDS011;38263;52.920;6.238;2023-06-14T00:37:52;6.07;;;1.50;;
52322;SDS011;38263;52.920;6.238;2023-06-14T00:40:19;3.88;;;1.15;;
52322;SDS011;38263;52.920;6.238;2023-06-14T00:42:46;5.30;;;1.45;;
52322;SDS011;38263;52.920;6.238;2023-06-14T00:45:12;3.33;;;1.50;;
52322;SDS011;38263;52.920;6.238;2023-06-14T00:47:37;4.10;;;1.73;;
52322;SDS011;38263;52.920;6.238;2023-06-14T00:50:06;3.50;;;1.73;;
52322;SDS011;38263;52.920;6.238;2023-06-14T00:52:32;5.68;;;1.77;;
52322;SDS011;38263;52.920;6.238;2023-06-14T00:54:59;4.05;;;1.25;;
52322;SDS011;38263;52.920;6.238;2023-06-14T00:57:26;7.05;;;1.45;;
52322;SDS011;38263;52.920;6.238;2023-06-14T00:59:52;5.68;;;1.55;;
52322;SDS011;38263;52.920;6.238;2023-06-14T01:02:17;5.68;;;1.48;;
52322;SDS011;38263;52.920;6.238;2023-06-14T01:04:44;5.03;;;1.48;;
52322;SDS011;38263;52.920;6.238;2023-06-14T01:12:27;7.45;;;1.42;;
52322;SDS011;38263;52.920;6.238;2023-06-14T01:15:10;5.47;;;2.20;;
52322;SDS011;38263;52.920;6.238;2023-06-14T01:17:38;6.63;;;1.60;;
52322;SDS011;38263;52.920;6.238;2023-06-14T01:20:08;4.95;;;1.45;;
52322;SDS011;38263;52.920;6.238;2023-06-14T01:22:35;6.82;;;1.80;;
52322;SDS011;38263;52.920;6.238;2023-06-14T01:25:01;2.38;;;1.67;;
52322;SDS011;38263;52.920;6.238;2023-06-14T01:27:27;3.22;;;1.38;;
52322;SDS011;38263;52.920;6.238;2023-06-14T01:29:57;3.58;;;1.20;;
52322;SDS011;38263;52.920;6.238;2023-06-14T01:32:26;3.72;;;1.45;;
52322;SDS011;38263;52.920;6.238;2023-06-14T01:34:54;3.97;;;1.17;;
52322;SDS011;38263;52.920;6.238;2023-06-14T01:37:19;5.05;;;1.70;;
52322;SDS011;38263;52.920;6.238;2023-06-14T01:39:47;4.97;;;1.95;;
52322;SDS011;38263;52.920;6.238;2023-06-14T01:42:14;2.33;;;1.40;;
52322;SDS011;38263;52.920;6.238;2023-06-14T01:44:41;3.28;;;1.50;;
52322;SDS011;38263;52.920;6.238;2023-06-14T01:47:09;2.17;;;1.23;;
52322;SDS011;38263;52.920;6.238;2023-06-14T01:49:35;5.55;;;1.75;;
52322;SDS011;38263;52.920;6.238;2023-06-14T01:52:01;8.35;;;1.85;;
52322;SDS011;38263;52.920;6.238;2023-06-14T01:54:27;8.52;;;1.55;;
52322;SDS011;38263;52.920;6.238;2023-06-14T01:56:54;4.10;;;1.60;;
52322;SDS011;38263;52.920;6.238;2023-06-14T01:59:20;2.28;;;1.27;;
52322;SDS011;38263;52.920;6.238;2023-06-14T02:01:46;5.78;;;1.30;;
52322;SDS011;38263;52.920;6.238;2023-06-14T02:04:12;4.43;;;1.80;;
52322;SDS011;38263;52.920;6.238;2023-06-14T02:06:38;4.93;;;1.42;;
52322;SDS011;38263;52.920;6.238;2023-06-14T02:09:04;6.70;;;1.60;;
52322;SDS011;38263;52.920;6.238;2023-06-14T02:11:29;2.38;;;1.42;;
52322;SDS011;38263;52.920;6.238;2023-06-14T02:13:55;5.63;;;1.98;;
52322;SDS011;38263;52.920;6.238;2023-06-14T02:16:21;5.78;;;1.60;;
52322;SDS011;38263;52.920;6.238;2023-06-14T02:18:47;4.38;;;2.03;;
52322;SDS011;38263;52.920;6.238;2023-06-14T02:21:13;9.27;;;2.13;;
52322;SDS011;38263;52.920;6.238;2023-06-14T02:23:39;3.88;;;1.73;;
52322;SDS011;38263;52.920;6.238;2023-06-14T02:26:06;5.85;;;2.03;;
52322;SDS011;38263;52.920;6.238;2023-06-14T02:28:32;4.43;;;2.08;;
52322;SDS011;38263;52.920;6.238;2023-06-14T02:30:58;4.88;;;1.63;;
52322;SDS011;38263;52.920;6.238;2023-06-14T02:33:23;4.95;;;2.10;;
52322;SDS011;38263;52.920;6.238;2023-06-14T02:35:50;3.72;;;2.10;;
52322;SDS011;38263;52.920;6.238;2023-06-14T02:38:17;5.18;;;1.50;;
52322;SDS011;38263;52.920;6.238;2023-06-14T02:40:43;4.45;;;2.10;;
52322;SDS011;38263;52.920;6.238;2023-06-14T02:43:09;4.32;;;1.90;;
52322;SDS011;38263;52.920;6.238;2023-06-14T02:45:34;4.00;;;2.20;;
52322;SDS011;38263;52.920;6.238;2023-06-14T02:48:00;2.53;;;1.58;;
52322;SDS011;38263;52.920;6.238;2023-06-14T02:50:26;3.67;;;1.88;;
52322;SDS011;38263;52.920;6.238;2023-06-14T02:52:53;6.15;;;1.80;;
52322;SDS011;38263;52.920;6.238;2023-06-14T02:55:20;4.45;;;1.65;;
52322;SDS011;38263;52.920;6.238;2023-06-14T02:57:46;4.68;;;2.30;;
52322;SDS011;38263;52.920;6.238;2023-06-14T03:00:13;8.77;;;2.10;;
52322;SDS011;38263;52.920;6.238;2023-06-14T03:02:39;5.45;;;1.73;;
52322;SDS011;38263;52.920;6.238;2023-06-14T03:05:05;5.70;;;1.75;;
52322;SDS011;38263;52.920;6.238;2023-06-14T03:07:32;5.78;;;1.48;;
52322;SDS011;38263;52.920;6.238;2023-06-14T03:09:59;5.45;;;1.70;;
52322;SDS011;38263;52.920;6.238;2023-06-14T03:12:25;4.72;;;1.70;;
52322;SDS011;38263;52.920;6.238;2023-06-14T03:14:51;8.60;;;2.70;;
52322;SDS011;38263;52.920;6.238;2023-06-14T03:17:17;4.40;;;1.50;;
52322;SDS011;38263;52.920;6.238;2023-06-14T03:19:44;3.38;;;1.75;;
52322;SDS011;38263;52.920;6.238;2023-06-14T03:22:10;9.07;;;1.90;;
52322;SDS011;38263;52.920;6.238;2023-06-14T03:24:36;5.32;;;1.90;;
52322;SDS011;38263;52.920;6.238;2023-06-14T03:27:02;3.78;;;1.60;;
52322;SDS011;38263;52.920;6.238;2023-06-14T03:29:28;7.03;;;1.70;;
52322;SDS011;38263;52.920;6.238;2023-06-14T03:31:58;7.72;;;2.22;;
52322;SDS011;38263;52.920;6.238;2023-06-14T03:34:24;3.47;;;1.88;;
52322;SDS011;38263;52.920;6.238;2023-06-14T03:36:50;4.72;;;1.92;;
52322;SDS011;38263;52.920;6.238;2023-06-14T03:39:15;3.95;;;1.77;;
52322;SDS011;38263;52.920;6.238;2023-06-14T03:41:41;7.47;;;1.80;;
52322;SDS011;38263;52.920;6.238;2023-06-14T03:44:07;4.97;;;2.20;;
52322;SDS011;38263;52.920;6.238;2023-06-14T03:46:32;4.40;;;2.90;;
52322;SDS011;38263;52.920;6.238;2023-06-14T03:48:58;7.35;;;1.80;;
52322;SDS011;38263;52.920;6.238;2023-06-14T03:51:25;3.10;;;1.40;;
52322;SDS011;38263;52.920;6.238;2023-06-14T03:53:51;3.55;;;1.88;;
52322;SDS011;38263;52.920;6.238;2023-06-14T03:56:17;4.38;;;1.70;;
52322;SDS011;38263;52.920;6.238;2023-06-14T03:58:42;5.32;;;1.88;;
52322;SDS011;38263;52.920;6.238;2023-06-14T04:01:08;6.32;;;1.85;;
52322;SDS011;38263;52.920;6.238;2023-06-14T04:03:34;4.38;;;2.03;;
52322;SDS011;38263;52.920;6.238;2023-06-14T04:06:00;3.78;;;2.03;;
52322;SDS011;38263;52.920;6.238;2023-06-14T04:08:26;6.43;;;1.88;;
52322;SDS011;38263;52.920;6.238;2023-06-14T04:10:52;4.18;;;1.40;;
52322;SDS011;38263;52.920;6.238;2023-06-14T04:13:17;4.90;;;1.90;;
52322;SDS011;38263;52.920;6.238;2023-06-14T04:15:43;3.38;;;1.80;;
52322;SDS011;38263;52.920;6.238;2023-06-14T04:18:11;3.30;;;1.83;;
52322;SDS011;38263;52.920;6.238;2023-06-14T04:20:37;4.72;;;1.98;;
52322;SDS011;38263;52.920;6.238;2023-06-14T04:23:15;5.80;;;1.90;;
52322;SDS011;38263;52.920;6.238;2023-06-14T04:25:42;4.40;;;1.90;;
52322;SDS011;38263;52.920;6.238;2023-06-14T04:28:13;4.35;;;1.70;;
52322;SDS011;38263;52.920;6.238;2023-06-14T04:30:42;4.53;;;2.10;;
52322;SDS011;38263;52.920;6.238;2023-06-14T04:33:09;6.80;;;2.20;;
52322;SDS011;38263;52.920;6.238;2023-06-14T04:35:36;4.43;;;2.00;;
52322;SDS011;38263;52.920;6.238;2023-06-14T04:38:02;5.65;;;2.30;;
52322;SDS011;38263;52.920;6.238;2023-06-14T04:40:34;4.75;;;1.85;;
52322;SDS011;38263;52.920;6.238;2023-06-14T04:43:07;3.80;;;1.65;;
52322;SDS011;38263;52.920;6.238;2023-06-14T04:45:33;7.35;;;2.45;;
52322;SDS011;38263;52.920;6.238;2023-06-14T04:47:59;6.10;;;2.38;;
52322;SDS011;38263;52.920;6.238;2023-06-14T04:50:26;4.47;;;2.00;;
52322;SDS011;38263;52.920;6.238;2023-06-14T04:52:52;4.80;;;2.38;;
52322;SDS011;38263;52.920;6.238;2023-06-14T04:55:18;3.78;;;2.00;;
52322;SDS011;38263;52.920;6.238;2023-06-14T04:57:44;4.78;;;1.95;;
52322;SDS011;38263;52.920;6.238;2023-06-14T05:00:10;3.42;;;1.77;;
52322;SDS011;38263;52.920;6.238;2023-06-14T05:02:37;6.72;;;1.80;;
52322;SDS011;38263;52.920;6.238;2023-06-14T05:05:03;5.28;;;1.50;;
52322;SDS011;38263;52.920;6.238;2023-06-14T05:07:32;5.15;;;1.92;;
52322;SDS011;38263;52.920;6.238;2023-06-14T05:10:01;5.45;;;2.03;;
52322;SDS011;38263;52.920;6.238;2023-06-14T05:12:27;5.18;;;2.15;;
52322;SDS011;38263;52.920;6.238;2023-06-14T05:14:54;3.88;;;1.58;;
52322;SDS011;38263;52.920;6.238;2023-06-14T05:17:19;7.43;;;1.80;;
52322;SDS011;38263;52.920;6.238;2023-06-14T05:19:45;13.95;;;2.25;;
52322;SDS011;38263;52.920;6.238;2023-06-14T05:22:11;5.75;;;2.05;;
52322;SDS011;38263;52.920;6.238;2023-06-14T05:24:37;6.03;;;2.30;;
52322;SDS011;38263;52.920;6.238;2023-06-14T05:27:03;6.38;;;1.92;;
52322;SDS011;38263;52.920;6.238;2023-06-14T05:29:30;3.90;;;1.60;;
52322;SDS011;38263;52.920;6.238;2023-06-14T05:31:55;4.93;;;1.88;;
52322;SDS011;38263;52.920;6.238;2023-06-14T05:34:21;3.67;;;1.90;;
52322;SDS011;38263;52.920;6.238;2023-06-14T05:36:46;4.82;;;2.25;;
52322;SDS011;38263;52.920;6.238;2023-06-14T05:39:12;3.15;;;1.40;;
52322;SDS011;38263;52.920;6.238;2023-06-14T05:41:38;3.28;;;1.45;;
52322;SDS011;38263;52.920;6.238;2023-06-14T05:44:04;3.50;;;1.63;;
52322;SDS011;38263;52.920;6.238;2023-06-14T05:46:29;7.07;;;2.10;;
52322;SDS011;38263;52.920;6.238;2023-06-14T05:48:55;4.47;;;1.60;;
52322;SDS011;38263;52.920;6.238;2023-06-14T05:51:21;7.35;;;1.60;;
52322;SDS011;38263;52.920;6.238;2023-06-14T05:53:50;3.88;;;2.00;;
52322;SDS011;38263;52.920;6.238;2023-06-14T05:56:15;7.95;;;1.70;;
52322;SDS011;38263;52.920;6.238;2023-06-14T05:58:45;4.63;;;1.80;;
52322;SDS011;38263;52.920;6.238;2023-06-14T06:01:11;4.05;;;1.83;;
52322;SDS011;38263;52.920;6.238;2023-06-14T06:03:38;4.68;;;2.42;;
52322;SDS011;38263;52.920;6.238;2023-06-14T06:06:03;7.78;;;1.67;;
52322;SDS011;38263;52.920;6.238;2023-06-14T06:08:29;2.80;;;1.10;;
52322;SDS011;38263;52.920;6.238;2023-06-14T06:10:56;2.58;;;1.08;;
52322;SDS011;38263;52.920;6.238;2023-06-14T06:13:22;5.13;;;1.42;;
52322;SDS011;38263;52.920;6.238;2023-06-14T06:15:48;3.50;;;1.50;;
52322;SDS011;38263;52.920;6.238;2023-06-14T06:18:13;5.15;;;1.95;;
52322;SDS011;38263;52.920;6.238;2023-06-14T06:20:39;3.28;;;0.82;;
52322;SDS011;38263;52.920;6.238;2023-06-14T06:23:04;4.10;;;1.08;;
52322;SDS011;38263;52.920;6.238;2023-06-14T06:25:30;4.80;;;1.45;;
52322;SDS011;38263;52.920;6.238;2023-06-14T06:27:56;4.20;;;1.67;;
52322;SDS011;38263;52.920;6.238;2023-06-14T06:30:23;3.55;;;1.10;;
52322;SDS011;38263;52.920;6.238;2023-06-14T06:32:49;3.33;;;1.40;;
52322;SDS011;38263;52.920;6.238;2023-06-14T06:35:15;5.07;;;1.00;;
52322;SDS011;38263;52.920;6.238;2023-06-14T06:37:41;6.43;;;1.73;;
52322;SDS011;38263;52.920;6.238;2023-06-14T06:40:07;5.75;;;1.33;;
52322;SDS011;38263;52.920;6.238;2023-06-14T06:42:34;4.32;;;1.10;;
52322;SDS011;38263;52.920;6.238;2023-06-14T06:45:00;4.50;;;1.13;;
52322;SDS011;38263;52.920;6.238;2023-06-14T06:47:25;5.43;;;1.20;;
52322;SDS011;38263;52.920;6.238;2023-06-14T06:49:51;3.22;;;1.55;;
52322;SDS011;38263;52.920;6.238;2023-06-14T06:52:17;5.60;;;1.20;;
52322;SDS011;38263;52.920;6.238;2023-06-14T06:54:42;8.48;;;1.92;;
52322;SDS011;38263;52.920;6.238;2023-06-14T06:57:08;4.65;;;1.45;;
52322;SDS011;38263;52.920;6.238;2023-06-14T06:59:34;4.20;;;1.40;;
52322;SDS011;38263;52.920;6.238;2023-06-14T07:01:59;7.43;;;1.30;;
52322;SDS011;38263;52.920;6.238;2023-06-14T07:04:25;2.53;;;1.15;;
52322;SDS011;38263;52.920;6.238;2023-06-14T07:06:51;5.88;;;1.35;;
52322;SDS011;38263;52.920;6.238;2023-06-14T07:09:16;3.70;;;1.23;;
52322;SDS011;38263;52.920;6.238;2023-06-14T07:11:43;4.97;;;1.58;;
52322;SDS011;38263;52.920;6.238;2023-06-14T07:14:09;2.40;;;1.20;;
52322;SDS011;38263;52.920;6.238;2023-06-14T07:16:36;4.05;;;1.30;;
52322;SDS011;38263;52.920;6.238;2023-06-14T07:19:02;5.80;;;1.40;;
52322;SDS011;38263;52.920;6.238;2023-06-14T07:21:28;4.38;;;1.15;;
52322;SDS011;38263;52.920;6.238;2023-06-14T07:23:54;2.75;;;1.52;;
52322;SDS011;38263;52.920;6.238;2023-06-14T07:26:20;4.53;;;1.52;;
52322;SDS011;38263;52.920;6.238;2023-06-14T07:28:46;4.00;;;1.35;;
52322;SDS011;38263;52.920;6.238;2023-06-14T07:31:13;3.13;;;1.45;;
52322;SDS011;38263;52.920;6.238;2023-06-14T07:33:40;5.25;;;1.73;;
52322;SDS011;38263;52.920;6.238;2023-06-14T07:36:06;5.45;;;1.73;;
52322;SDS011;38263;52.920;6.238;2023-06-14T07:38:32;2.67;;;1.35;;
52322;SDS011;38263;52.920;6.238;2023-06-14T07:40:58;6.18;;;2.00;;
52322;SDS011;38263;52.920;6.238;2023-06-14T07:43:23;4.20;;;1.60;;
52322;SDS011;38263;52.920;6.238;2023-06-14T07:45:49;3.33;;;1.48;;
52322;SDS011;38263;52.920;6.238;2023-06-14T07:48:16;2.70;;;1.40;;
52322;SDS011;38263;52.920;6.238;2023-06-14T07:50:41;2.80;;;1.15;;
52322;SDS011;38263;52.920;6.238;2023-06-14T07:53:07;7.05;;;1.17;;
52322;SDS011;38263;52.920;6.238;2023-06-14T07:55:32;3.65;;;1.13;;
52322;SDS011;38263;52.920;6.238;2023-06-14T07:58:01;6.32;;;1.55;;
52322;SDS011;38263;52.920;6.238;2023-06-14T08:00:28;6.70;;;1.20;;
52322;SDS011;38263;52.920;6.238;2023-06-14T08:02:53;6.30;;;1.50;;
52322;SDS011;38263;52.920;6.238;2023-06-14T08:05:23;7.03;;;1.30;;
52322;SDS011;38263;52.920;6.238;2023-06-14T08:07:49;7.13;;;1.75;;
52322;SDS011;38263;52.920;6.238;2023-06-14T08:10:15;8.02;;;1.48;;
52322;SDS011;38263;52.920;6.238;2023-06-14T08:12:41;3.70;;;1.48;;
52322;SDS011;38263;52.920;6.238;2023-06-14T08:15:07;3.85;;;1.08;;
52322;SDS011;38263;52.920;6.238;2023-06-14T08:17:34;3.15;;;1.27;;
52322;SDS011;38263;52.920;6.238;2023-06-14T08:19:59;5.63;;;1.40;;
52322;SDS011;38263;52.920;6.238;2023-06-14T08:22:25;6.10;;;1.40;;
52322;SDS011;38263;52.920;6.238;2023-06-14T08:24:53;3.15;;;1.27;;
52322;SDS011;38263;52.920;6.238;2023-06-14T08:27:19;3.17;;;1.10;;
52322;SDS011;38263;52.920;6.238;2023-06-14T08:29:45;2.92;;;1.08;;
52322;SDS011;38263;52.920;6.238;2023-06-14T08:32:11;4.00;;;1.08;;
52322;SDS011;38263;52.920;6.238;2023-06-14T08:34:37;3.63;;;1.35;;
52322;SDS011;38263;52.920;6.238;2023-06-14T08:37:03;3.22;;;1.35;;
52322;SDS011;38263;52.920;6.238;2023-06-14T08:39:29;2.72;;;1.45;;
52322;SDS011;38263;52.920;6.238;2023-06-14T08:41:54;3.47;;;1.30;;
52322;SDS011;38263;52.920;6.238;2023-06-14T08:44:22;4.53;;;1.30;;
52322;SDS011;38263;52.920;6.238;2023-06-14T08:46:48;3.53;;;1.13;;
52322;SDS011;38263;52.920;6.238;2023-06-14T08:49:16;4.00;;;1.20;;
52322;SDS011;38263;52.920;6.238;2023-06-14T08:51:43;2.80;;;1.27;;
52322;SDS011;38263;52.920;6.238;2023-06-14T08:54:10;2.42;;;1.02;;
52322;SDS011;38263;52.920;6.238;2023-06-14T08:56:40;3.72;;;1.20;;
52322;SDS011;38263;52.920;6.238;2023-06-14T08:59:06;3.78;;;1.00;;
52322;SDS011;38263;52.920;6.238;2023-06-14T09:01:34;6.57;;;1.10;;
52322;SDS011;38263;52.920;6.238;2023-06-14T09:04:01;4.32;;;1.42;;
52322;SDS011;38263;52.920;6.238;2023-06-14T09:06:27;4.90;;;1.08;;
52322;SDS011;38263;52.920;6.238;2023-06-14T09:08:54;3.38;;;1.10;;
52322;SDS011;38263;52.920;6.238;2023-06-14T09:11:23;4.70;;;2.05;;
52322;SDS011;38263;52.920;6.238;2023-06-14T09:13:51;4.65;;;1.58;;
52322;SDS011;38263;52.920;6.238;2023-06-14T09:16:16;3.53;;;0.95;;
52322;SDS011;38263;52.920;6.238;2023-06-14T09:18:43;1.92;;;0.88;;
52322;SDS011;38263;52.920;6.238;2023-06-14T09:21:10;2.92;;;0.70;;
52322;SDS011;38263;52.920;6.238;2023-06-14T09:23:37;4.25;;;1.40;;
52322;SDS011;38263;52.920;6.238;2023-06-14T09:26:07;5.55;;;1.50;;
52322;SDS011;38263;52.920;6.238;2023-06-14T09:28:43;5.38;;;1.00;;
52322;SDS011;38263;52.920;6.238;2023-06-14T09:31:14;14.60;;;1.57;;
52322;SDS011;38263;52.920;6.238;2023-06-14T09:33:42;3.17;;;1.02;;
52322;SDS011;38263;52.920;6.238;2023-06-14T09:36:22;7.07;;;1.55;;
52322;SDS011;38263;52.920;6.238;2023-06-14T09:38:56;7.80;;;1.48;;
52322;SDS011;38263;52.920;6.238;2023-06-14T09:43:58;5.60;;;1.20;;
52322;SDS011;38263;52.920;6.238;2023-06-14T09:46:28;6.55;;;1.60;;
52322;SDS011;38263;52.920;6.238;2023-06-14T09:48:54;7.13;;;1.02;;
52322;SDS011;38263;52.920;6.238;2023-06-14T09:51:21;3.20;;;0.95;;
52322;SDS011;38263;52.920;6.238;2023-06-14T09:53:51;2.60;;;1.02;;
52322;SDS011;38263;52.920;6.238;2023-06-14T09:56:27;6.18;;;1.38;;
52322;SDS011;38263;52.920;6.238;2023-06-14T09:58:55;4.38;;;1.27;;
52322;SDS011;38263;52.920;6.238;2023-06-14T10:01:23;3.28;;;1.15;;
52322;SDS011;38263;52.920;6.238;2023-06-14T10:03:52;2.83;;;1.27;;
52322;SDS011;38263;52.920;6.238;2023-06-14T10:06:23;4.95;;;1.30;;
52322;SDS011;38263;52.920;6.238;2023-06-14T10:08:50;4.70;;;1.00;;
52322;SDS011;38263;52.920;6.238;2023-06-14T10:11:19;5.25;;;0.77;;
52322;SDS011;38263;52.920;6.238;2023-06-14T10:13:45;7.97;;;1.30;;
52322;SDS011;38263;52.920;6.238;2023-06-14T10:17:12;3.08;;;1.02;;
52322;SDS011;38263;52.920;6.238;2023-06-14T10:19:19;8.10;;;1.55;;
52322;SDS011;38263;52.920;6.238;2023-06-14T10:21:57;4.70;;;1.10;;
52322;SDS011;38263;52.920;6.238;2023-06-14T10:24:29;2.15;;;1.48;;
52322;SDS011;38263;52.920;6.238;2023-06-14T10:26:58;3.63;;;0.90;;
52322;SDS011;38263;52.920;6.238;2023-06-14T10:29:26;3.38;;;0.80;;
52322;SDS011;38263;52.920;6.238;2023-06-14T10:31:56;3.92;;;0.80;;
52322;SDS011;38263;52.920;6.238;2023-06-14T10:34:23;2.95;;;1.08;;
52322;SDS011;38263;52.920;6.238;2023-06-14T10:37:06;2.70;;;0.73;;
52322;SDS011;38263;52.920;6.238;2023-06-14T10:39:39;4.03;;;0.80;;
52322;SDS011;38263;52.920;6.238;2023-06-14T10:42:06;5.90;;;1.15;;
52322;SDS011;38263;52.920;6.238;2023-06-14T10:46:58;4.28;;;0.85;;
52322;SDS011;38263;52.920;6.238;2023-06-14T10:49:41;3.08;;;0.68;;
52322;SDS011;38263;52.920;6.238;2023-06-14T10:52:09;7.10;;;0.75;;
52322;SDS011;38263;52.920;6.238;2023-06-14T10:57:34;2.30;;;0.73;;
52322;SDS011;38263;52.920;6.238;2023-06-14T11:00:04;4.20;;;1.00;;
52322;SDS011;38263;52.920;6.238;2023-06-14T11:05:26;1.10;;;0.60;;
52322;SDS011;38263;52.920;6.238;2023-06-14T11:11:07;2.08;;;0.68;;
52322;SDS011;38263;52.920;6.238;2023-06-14T11:13:34;1.40;;;0.47;;
52322;SDS011;38263;52.920;6.238;2023-06-14T11:16:03;3.30;;;0.98;;
52322;SDS011;38263;52.920;6.238;2023-06-14T11:18:36;1.47;;;1.10;;
52322;SDS011;38263;52.920;6.238;2023-06-14T11:21:02;1.77;;;0.50;;
52322;SDS011;38263;52.920;6.238;2023-06-14T11:23:28;2.60;;;0.75;;
52322;SDS011;38263;52.920;6.238;2023-06-14T11:25:53;3.42;;;0.60;;
52322;SDS011;38263;52.920;6.238;2023-06-14T11:28:19;2.78;;;0.60;;
52322;SDS011;38263;52.920;6.238;2023-06-14T11:30:46;3.67;;;0.60;;
52322;SDS011;38263;52.920;6.238;2023-06-14T11:33:16;5.82;;;0.80;;
52322;SDS011;38263;52.920;6.238;2023-06-14T11:35:45;3.38;;;0.80;;
52322;SDS011;38263;52.920;6.238;2023-06-14T11:38:11;4.70;;;0.60;;
52322;SDS011;38263;52.920;6.238;2023-06-14T11:40:37;3.25;;;0.50;;
52322;SDS011;38263;52.920;6.238;2023-06-14T11:43:03;4.28;;;0.60;;
52322;SDS011;38263;52.920;6.238;2023-06-14T11:45:29;5.50;;;0.52;;
52322;SDS011;38263;52.920;6.238;2023-06-14T11:47:56;4.25;;;0.28;;
52322;SDS011;38263;52.920;6.238;2023-06-14T11:50:22;4.43;;;0.60;;
52322;SDS011;38263;52.920;6.238;2023-06-14T11:52:53;2.30;;;0.47;;
52322;SDS011;38263;52.920;6.238;2023-06-14T11:55:22;2.67;;;0.60;;
52322;SDS011;38263;52.920;6.238;2023-06-14T11:57:48;1.05;;;0.40;;
52322;SDS011;38263;52.920;6.238;2023-06-14T12:00:14;1.92;;;0.40;;
52322;SDS011;38263;52.920;6.238;2023-06-14T12:02:41;2.50;;;0.40;;
52322;SDS011;38263;52.920;6.238;2023-06-14T12:05:07;7.82;;;0.80;;
52322;SDS011;38263;52.920;6.238;2023-06-14T12:07:35;4.22;;;0.50;;
52322;SDS011;38263;52.920;6.238;2023-06-14T12:10:05;3.33;;;0.68;;
52322;SDS011;38263;52.920;6.238;2023-06-14T12:12:39;2.42;;;0.73;;
52322;SDS011;38263;52.920;6.238;2023-06-14T12:15:05;2.08;;;0.60;;
52322;SDS011;38263;52.920;6.238;2023-06-14T12:17:35;3.10;;;0.70;;
52322;SDS011;38263;52.920;6.238;2023-06-14T12:20:07;1.00;;;0.55;;
52322;SDS011;38263;52.920;6.238;2023-06-14T12:22:39;2.88;;;0.75;;
52322;SDS011;38263;52.920;6.238;2023-06-14T12:25:22;1.83;;;0.50;;
52322;SDS011;38263;52.920;6.238;2023-06-14T12:27:58;3.25;;;0.57;;
52322;SDS011;38263;52.920;6.238;2023-06-14T12:30:28;6.28;;;1.35;;
52322;SDS011;38263;52.920;6.238;2023-06-14T12:32:54;1.75;;;0.50;;
52322;SDS011;38263;52.920;6.238;2023-06-14T12:35:19;2.25;;;0.90;;
52322;SDS011;38263;52.920;6.238;2023-06-14T12:37:46;3.15;;;0.65;;
52322;SDS011;38263;52.920;6.238;2023-06-14T12:40:12;5.57;;;0.80;;
52322;SDS011;38263;52.920;6.238;2023-06-14T12:42:38;4.75;;;0.80;;
52322;SDS011;38263;52.920;6.238;2023-06-14T12:45:04;2.90;;;0.80;;
52322;SDS011;38263;52.920;6.238;2023-06-14T12:47:30;1.60;;;0.50;;
52322;SDS011;38263;52.920;6.238;2023-06-14T12:49:56;2.92;;;0.70;;
52322;SDS011;38263;52.920;6.238;2023-06-14T12:52:21;1.80;;;0.50;;
52322;SDS011;38263;52.920;6.238;2023-06-14T12:54:47;3.65;;;0.70;;
52322;SDS011;38263;52.920;6.238;2023-06-14T12:57:13;2.03;;;0.60;;
52322;SDS011;38263;52.920;6.238;2023-06-14T12:59:38;2.80;;;0.60;;
52322;SDS011;38263;52.920;6.238;2023-06-14T13:02:13;2.70;;;0.80;;
52322;SDS011;38263;52.920;6.238;2023-06-14T13:04:40;2.47;;;0.90;;
52322;SDS011;38263;52.920;6.238;2023-06-14T13:07:06;4.13;;;0.68;;
52322;SDS011;38263;52.920;6.238;2023-06-14T13:09:32;6.45;;;0.75;;
52322;SDS011;38263;52.920;6.238;2023-06-14T13:11:57;2.42;;;1.02;;
52322;SDS011;38263;52.920;6.238;2023-06-14T13:14:23;6.07;;;0.90;;
52322;SDS011;38263;52.920;6.238;2023-06-14T13:16:49;3.50;;;0.90;;
52322;SDS011;38263;52.920;6.238;2023-06-14T13:19:15;4.22;;;0.88;;
52322;SDS011;38263;52.920;6.238;2023-06-14T13:21:40;2.35;;;0.80;;
52322;SDS011;38263;52.920;6.238;2023-06-14T13:24:06;1.90;;;0.70;;
52322;SDS011;38263;52.920;6.238;2023-06-14T13:26:32;3.72;;;0.55;;
52322;SDS011;38263;52.920;6.238;2023-06-14T13:28:58;4.93;;;0.70;;
52322;SDS011;38263;52.920;6.238;2023-06-14T13:31:23;4.25;;;0.70;;
52322;SDS011;38263;52.920;6.238;2023-06-14T13:33:49;1.50;;;0.50;;
52322;SDS011;38263;52.920;6.238;2023-06-14T13:36:15;6.97;;;1.17;;
52322;SDS011;38263;52.920;6.238;2023-06-14T13:38:41;1.10;;;0.50;;
52322;SDS011;38263;52.920;6.238;2023-06-14T13:41:06;4.72;;;0.90;;
52322;SDS011;38263;52.920;6.238;2023-06-14T13:43:32;3.65;;;0.60;;
52322;SDS011;38263;52.920;6.238;2023-06-14T13:45:57;1.00;;;0.68;;
52322;SDS011;38263;52.920;6.238;2023-06-14T13:48:23;4.53;;;1.00;;
52322;SDS011;38263;52.920;6.238;2023-06-14T13:50:49;2.60;;;0.90;;
52322;SDS011;38263;52.920;6.238;2023-06-14T13:53:15;2.65;;;0.70;;
52322;SDS011;38263;52.920;6.238;2023-06-14T13:55:40;3.05;;;0.60;;
52322;SDS011;38263;52.920;6.238;2023-06-14T13:58:06;4.68;;;0.95;;
52322;SDS011;38263;52.920;6.238;2023-06-14T14:00:31;1.60;;;0.90;;
52322;SDS011;38263;52.920;6.238;2023-06-14T14:02:57;3.85;;;0.60;;
52322;SDS011;38263;52.920;6.238;2023-06-14T14:05:24;4.63;;;1.23;;
52322;SDS011;38263;52.920;6.238;2023-06-14T14:07:54;3.25;;;0.52;;
52322;SDS011;38263;52.920;6.238;2023-06-14T14:10:20;2.22;;;0.68;;
52322;SDS011;38263;52.920;6.238;2023-06-14T14:12:45;3.00;;;0.88;;
52322;SDS011;38263;52.920;6.238;2023-06-14T14:15:11;1.75;;;0.70;;
52322;SDS011;38263;52.920;6.238;2023-06-14T14:17:39;2.40;;;0.70;;
52322;SDS011;38263;52.920;6.238;2023-06-14T14:20:06;3.03;;;0.65;;
52322;SDS011;38263;52.920;6.238;2023-06-14T14:22:32;2.80;;;0.60;;
52322;SDS011;38263;52.920;6.238;2023-06-14T14:24:57;1.77;;;0.63;;
52322;SDS011;38263;52.920;6.238;2023-06-14T14:27:26;2.95;;;0.88;;
52322;SDS011;38263;52.920;6.238;2023-06-14T14:29:51;3.67;;;0.85;;
52322;SDS011;38263;52.920;6.238;2023-06-14T14:32:17;1.15;;;0.50;;
52322;SDS011;38263;52.920;6.238;2023-06-14T14:34:42;1.67;;;0.70;;
52322;SDS011;38263;52.920;6.238;2023-06-14T14:37:08;3.53;;;0.70;;
52322;SDS011;38263;52.920;6.238;2023-06-14T14:39:33;3.10;;;0.82;;
52322;SDS011;38263;52.920;6.238;2023-06-14T14:41:59;3.97;;;0.55;;
52322;SDS011;38263;52.920;6.238;2023-06-14T14:44:25;1.42;;;0.50;;
52322;SDS011;38263;52.920;6.238;2023-06-14T14:46:50;2.28;;;0.85;;
52322;SDS011;38263;52.920;6.238;2023-06-14T14:49:16;2.10;;;0.47;;
52322;SDS011;38263;52.920;6.238;2023-06-14T14:51:41;2.70;;;0.60;;
52322;SDS011;38263;52.920;6.238;2023-06-14T14:54:07;3.92;;;0.80;;
52322;SDS011;38263;52.920;6.238;2023-06-14T14:56:33;2.90;;;0.50;;
52322;SDS011;38263;52.920;6.238;2023-06-14T14:59:00;2.63;;;0.63;;
52322;SDS011;38263;52.920;6.238;2023-06-14T15:01:25;1.63;;;0.82;;
52322;SDS011;38263;52.920;6.238;2023-06-14T15:03:51;1.45;;;0.50;;
52322;SDS011;38263;52.920;6.238;2023-06-14T15:06:17;2.15;;;0.50;;